Time;durP1;ratioP1;P1;durP2;ratioP2;P2;SDS_P1;SDS_P2;PMS_P1;PMS_P2;Temp;Humidity;BMP_temperature;BMP_pressure;BME280_temperature;BME280_humidity;BME280_pressure;Samples;Min_cycle;Max_cycle;Signal;HPM_P1;HPM_P2
2023/01/15 00:00:01;;;;;;;1.33;1.23;;;;;;;;;;5073872;28;20200;-65
2023/01/15 00:02:28;;;;;;;6.47;1.40;;;;;;;;;;5073365;28;20196;-66
2023/01/15 00:04:57;;;;;;;1.20;1.10;;;;;;;;;;5074277;28;20198;-66
2023/01/15 00:07:24;;;;;;;1.20;1.10;;;;;;;;;;5073338;28;20204;-66
2023/01/15 00:09:51;;;;;;;2.00;1.38;;;;;;;;;;5073633;28;20640;-66
2023/01/15 00:12:18;;;;;;;1.30;1.20;;;;;;;;;;5073250;28;20233;-66
2023/01/15 00:14:46;;;;;;;1.50;1.40;;;;;;;;;;5073330;28;20194;-66
2023/01/15 00:17:13;;;;;;;1.30;1.13;;;;;;;;;;5073139;28;20199;-66
2023/01/15 00:19:40;;;;;;;2.03;1.15;;;;;;;;;;5073603;28;20204;-66
2023/01/15 00:22:09;;;;;;;3.38;1.48;;;;;;;;;;5073690;28;20193;-66
2023/01/15 00:27:38;;;;;;;4.38;1.20;;;;;;;;;;5055782;28;20197;-66
2023/01/15 00:30:07;;;;;;;2.50;1.42;;;;;;;;;;5073886;28;20301;-66
2023/01/15 00:32:34;;;;;;;1.45;1.20;;;;;;;;;;5073639;28;20193;-66
2023/01/15 00:35:01;;;;;;;2.70;1.52;;;;;;;;;;5073795;28;20200;-66
2023/01/15 00:37:30;;;;;;;2.00;1.20;;;;;;;;;;5073166;28;20208;-66
2023/01/15 00:39:57;;;;;;;2.92;1.20;;;;;;;;;;5074146;28;20218;-66
2023/01/15 00:42:24;;;;;;;7.50;1.75;;;;;;;;;;5073699;28;20208;-66
2023/01/15 00:44:51;;;;;;;1.67;1.58;;;;;;;;;;5073071;28;20193;-65
2023/01/15 00:47:18;;;;;;;2.78;1.40;;;;;;;;;;5072840;28;20193;-65
2023/01/15 00:49:46;;;;;;;3.40;1.65;;;;;;;;;;5073375;28;20222;-65
2023/01/15 00:52:13;;;;;;;2.17;1.30;;;;;;;;;;5073489;28;20285;-65
2023/01/15 00:54:41;;;;;;;1.20;1.10;;;;;;;;;;5073196;28;20203;-65
2023/01/15 00:57:10;;;;;;;1.10;1.00;;;;;;;;;;5073699;28;20198;-65
2023/01/15 00:59:37;;;;;;;3.20;1.15;;;;;;;;;;5072885;28;20284;-65
2023/01/15 01:02:04;;;;;;;3.67;1.58;;;;;;;;;;5073022;28;20197;-65
2023/01/15 01:04:31;;;;;;;1.15;1.10;;;;;;;;;;5073113;28;20194;-65
2023/01/15 01:06:58;;;;;;;3.85;2.58;;;;;;;;;;5072695;28;20196;-65
2023/01/15 01:09:26;;;;;;;2.45;1.13;;;;;;;;;;5072873;28;20217;-65
2023/01/15 01:11:54;;;;;;;4.93;1.20;;;;;;;;;;5072684;28;20225;-65
2023/01/15 01:14:21;;;;;;;2.00;1.80;;;;;;;;;;5073110;28;20204;-65
2023/01/15 01:16:49;;;;;;;1.50;1.40;;;;;;;;;;5072874;28;20196;-65
2023/01/15 01:19:17;;;;;;;4.25;1.65;;;;;;;;;;5072652;28;20655;-65
2023/01/15 01:21:44;;;;;;;3.50;1.42;;;;;;;;;;5073281;28;20559;-65
2023/01/15 01:24:12;;;;;;;1.80;1.30;;;;;;;;;;5072910;28;20192;-65
2023/01/15 01:26:40;;;;;;;1.50;1.40;;;;;;;;;;5072907;28;20205;-65
2023/01/15 01:29:08;;;;;;;3.40;1.80;;;;;;;;;;5076398;28;20221;-65
2023/01/15 01:31:36;;;;;;;1.65;1.20;;;;;;;;;;5076278;28;20190;-65
2023/01/15 01:34:03;;;;;;;2.08;1.30;;;;;;;;;;5076695;28;20201;-65
2023/01/15 01:36:31;;;;;;;2.80;1.30;;;;;;;;;;5076115;28;20207;-65
2023/01/15 01:38:59;;;;;;;1.75;1.58;;;;;;;;;;5076046;28;20201;-65
2023/01/15 01:41:26;;;;;;;4.80;1.58;;;;;;;;;;5076184;28;20288;-65
2023/01/15 01:43:55;;;;;;;5.00;1.60;;;;;;;;;;5076525;28;20204;-65
2023/01/15 01:46:24;;;;;;;3.10;1.70;;;;;;;;;;5076270;28;20195;-64
2023/01/15 01:48:52;;;;;;;2.63;1.88;;;;;;;;;;5075727;28;20197;-65
2023/01/15 01:51:20;;;;;;;1.50;1.40;;;;;;;;;;5076782;28;20196;-64
2023/01/15 01:53:48;;;;;;;6.85;1.65;;;;;;;;;;5075835;28;20205;-64
2023/01/15 01:56:16;;;;;;;2.08;1.60;;;;;;;;;;5075832;28;20194;-64
2023/01/15 01:58:45;;;;;;;1.98;1.77;;;;;;;;;;5076058;28;20202;-64
2023/01/15 02:01:12;;;;;;;2.78;1.75;;;;;;;;;;5076093;28;20556;-64
2023/01/15 02:03:41;;;;;;;4.40;1.98;;;;;;;;;;5076019;28;20368;-64
2023/01/15 02:06:09;;;;;;;3.13;1.55;;;;;;;;;;5076126;28;20200;-64
2023/01/15 02:08:38;;;;;;;2.30;1.90;;;;;;;;;;5076046;28;20259;-64
2023/01/15 02:11:05;;;;;;;9.38;2.08;;;;;;;;;;5076097;28;20226;-65
2023/01/15 02:13:35;;;;;;;2.30;1.60;;;;;;;;;;5075934;28;20182;-64
2023/01/15 02:16:06;;;;;;;2.78;1.60;;;;;;;;;;5076113;28;20197;-64
2023/01/15 02:18:36;;;;;;;3.58;1.92;;;;;;;;;;5075509;28;20619;-64
2023/01/15 02:21:07;;;;;;;1.60;1.50;;;;;;;;;;5076268;28;20273;-64
2023/01/15 02:23:53;;;;;;;5.93;2.45;;;;;;;;;;5076143;28;20604;-64
2023/01/15 02:26:35;;;;;;;2.55;1.52;;;;;;;;;;5075882;28;20266;-64
2023/01/15 02:29:04;;;;;;;3.67;1.60;;;;;;;;;;5063025;28;20210;-64
2023/01/15 02:31:35;;;;;;;2.05;1.73;;;;;;;;;;5075882;28;20233;-64
2023/01/15 02:34:04;;;;;;;6.07;1.65;;;;;;;;;;5075729;28;20277;-64
2023/01/15 02:36:33;;;;;;;3.22;1.60;;;;;;;;;;5075229;28;20197;-64
2023/01/15 02:39:02;;;;;;;3.78;1.70;;;;;;;;;;5074597;28;20193;-64
2023/01/15 02:41:32;;;;;;;1.60;1.50;;;;;;;;;;5075356;28;20197;-64
2023/01/15 02:44:02;;;;;;;3.90;2.17;;;;;;;;;;5075350;28;20215;-64
2023/01/15 02:46:33;;;;;;;1.90;1.70;;;;;;;;;;5075422;28;20198;-64
2023/01/15 02:49:01;;;;;;;3.45;1.95;;;;;;;;;;5074986;28;20188;-64
2023/01/15 02:51:31;;;;;;;4.63;1.80;;;;;;;;;;5075007;28;20216;-64
2023/01/15 02:53:59;;;;;;;5.85;2.30;;;;;;;;;;5075532;28;20213;-64
2023/01/15 02:56:27;;;;;;;2.40;1.90;;;;;;;;;;5075027;28;20204;-64
2023/01/15 02:58:57;;;;;;;6.30;1.95;;;;;;;;;;5074878;28;20198;-64
2023/01/15 03:01:26;;;;;;;8.30;2.80;;;;;;;;;;5075198;28;20198;-64
2023/01/15 03:03:56;;;;;;;6.38;2.35;;;;;;;;;;5074429;28;20202;-64
2023/01/15 03:06:28;;;;;;;2.70;2.20;;;;;;;;;;5074765;28;20190;-63
2023/01/15 03:08:55;;;;;;;2.38;2.15;;;;;;;;;;5074701;28;20544;-64
2023/01/15 03:11:22;;;;;;;3.47;2.15;;;;;;;;;;5074731;28;20255;-64
2023/01/15 03:13:52;;;;;;;2.55;2.00;;;;;;;;;;5074901;28;20182;-63
2023/01/15 03:16:33;;;;;;;2.67;2.15;;;;;;;;;;5074564;28;20293;-63
2023/01/15 03:19:04;;;;;;;1.70;1.60;;;;;;;;;;5074859;28;20208;-63
2023/01/15 03:21:38;;;;;;;4.72;1.70;;;;;;;;;;5074859;28;20193;-64
2023/01/15 03:24:07;;;;;;;6.47;1.85;;;;;;;;;;5074516;28;20276;-63
2023/01/15 03:26:34;;;;;;;5.65;2.25;;;;;;;;;;5074003;28;20285;-63
2023/01/15 03:29:01;;;;;;;6.10;1.58;;;;;;;;;;5074095;28;20671;-64
2023/01/15 03:31:29;;;;;;;5.57;2.10;;;;;;;;;;5074131;28;20229;-64
2023/01/15 03:33:56;;;;;;;2.28;1.83;;;;;;;;;;5074687;28;20197;-64
2023/01/15 03:36:24;;;;;;;4.78;1.75;;;;;;;;;;5074216;28;20665;-63
2023/01/15 03:38:52;;;;;;;4.75;2.15;;;;;;;;;;5073932;28;20212;-64
2023/01/15 03:41:21;;;;;;;3.45;1.85;;;;;;;;;;5073931;28;20224;-64
2023/01/15 03:43:53;;;;;;;6.60;2.58;;;;;;;;;;5074051;28;20198;-64
2023/01/15 03:46:27;;;;;;;5.25;1.55;;;;;;;;;;5073773;28;20196;-63
2023/01/15 03:48:58;;;;;;;5.15;2.17;;;;;;;;;;5074071;28;20186;-64
2023/01/15 03:51:32;;;;;;;5.10;1.65;;;;;;;;;;5073191;28;20206;-63
2023/01/15 03:53:59;;;;;;;8.15;1.70;;;;;;;;;;5074475;28;20193;-63
2023/01/15 03:56:32;;;;;;;7.30;1.55;;;;;;;;;;5073819;28;20194;-63
2023/01/15 03:59:01;;;;;;;3.67;1.70;;;;;;;;;;5053748;28;20190;-64
2023/01/15 04:01:32;;;;;;;5.38;1.65;;;;;;;;;;5053797;28;20208;-63
2023/01/15 04:04:00;;;;;;;4.10;1.55;;;;;;;;;;5053750;28;20256;-64
2023/01/15 04:06:30;;;;;;;5.18;2.40;;;;;;;;;;5054066;28;20209;-63
2023/01/15 04:08:58;;;;;;;5.80;1.63;;;;;;;;;;5053706;28;20556;-64
2023/01/15 04:11:26;;;;;;;3.17;1.90;;;;;;;;;;5053344;28;20242;-64
2023/01/15 04:13:54;;;;;;;3.40;2.00;;;;;;;;;;5053635;28;20185;-64
2023/01/15 04:16:25;;;;;;;4.88;1.77;;;;;;;;;;5053583;28;20568;-63
2023/01/15 04:18:52;;;;;;;4.95;1.95;;;;;;;;;;5053878;28;20257;-63
2023/01/15 04:21:19;;;;;;;4.43;1.75;;;;;;;;;;5053101;28;20203;-63
2023/01/15 04:23:48;;;;;;;4.32;1.98;;;;;;;;;;5053190;28;20202;-63
2023/01/15 04:26:15;;;;;;;4.38;1.30;;;;;;;;;;5053056;28;20267;-63
2023/01/15 04:28:43;;;;;;;2.88;1.80;;;;;;;;;;5053455;28;20202;-63
2023/01/15 04:31:10;;;;;;;5.05;1.60;;;;;;;;;;5053267;28;20221;-64
2023/01/15 04:33:38;;;;;;;6.18;2.08;;;;;;;;;;5053888;28;20202;-63
2023/01/15 04:36:05;;;;;;;8.45;2.50;;;;;;;;;;5052950;28;20206;-64
2023/01/15 04:38:32;;;;;;;6.28;2.33;;;;;;;;;;5053692;28;20529;-64
2023/01/15 04:46:32;;;;;;;5.20;1.70;;;;;;;;;;5053040;28;20202;-64
2023/01/15 04:48:59;;;;;;;7.20;2.00;;;;;;;;;;5053527;28;20249;-64
2023/01/15 04:51:27;;;;;;;7.30;1.80;;;;;;;;;;5053041;28;20219;-64
2023/01/15 04:53:54;;;;;;;2.95;1.90;;;;;;;;;;5062172;28;20568;-64
2023/01/15 04:56:22;;;;;;;1.67;1.35;;;;;;;;;;5073143;28;20201;-64
2023/01/15 04:58:50;;;;;;;4.25;1.92;;;;;;;;;;5072881;28;20202;-64
2023/01/15 05:01:18;;;;;;;4.95;2.00;;;;;;;;;;5073077;28;20292;-64
2023/01/15 05:03:45;;;;;;;4.07;2.05;;;;;;;;;;5076964;28;20193;-64
2023/01/15 05:06:13;;;;;;;6.28;2.05;;;;;;;;;;5076701;28;20240;-64
2023/01/15 05:08:40;;;;;;;4.35;2.30;;;;;;;;;;5077015;28;20216;-64
2023/01/15 05:11:08;;;;;;;5.90;1.88;;;;;;;;;;5076488;28;20228;-64
2023/01/15 05:13:37;;;;;;;4.70;2.60;;;;;;;;;;5076694;28;20186;-64
2023/01/15 05:16:11;;;;;;;9.40;1.85;;;;;;;;;;5077050;28;20242;-64
2023/01/15 05:18:38;;;;;;;4.30;1.55;;;;;;;;;;5076866;28;20197;-64
2023/01/15 05:21:06;;;;;;;7.28;2.30;;;;;;;;;;5076491;28;20577;-64
2023/01/15 05:23:33;;;;;;;4.80;1.90;;;;;;;;;;5076413;28;20186;-64
2023/01/15 05:26:03;;;;;;;4.05;2.08;;;;;;;;;;5076708;28;20625;-64
2023/01/15 05:28:30;;;;;;;6.93;1.75;;;;;;;;;;5077164;28;20185;-64
2023/01/15 05:30:59;;;;;;;6.70;2.97;;;;;;;;;;5076490;28;20694;-65
2023/01/15 05:33:26;;;;;;;5.07;2.10;;;;;;;;;;5076546;28;20198;-64
2023/01/15 05:35:53;;;;;;;8.57;2.30;;;;;;;;;;5076078;28;20290;-64
2023/01/15 05:38:21;;;;;;;3.95;1.40;;;;;;;;;;5076186;28;20247;-64
2023/01/15 05:40:48;;;;;;;6.95;2.05;;;;;;;;;;5076024;28;20703;-64
2023/01/15 05:43:15;;;;;;;4.28;1.92;;;;;;;;;;5076433;28;20203;-64
2023/01/15 05:45:42;;;;;;;4.00;2.60;;;;;;;;;;5076539;28;20600;-64
2023/01/15 05:48:11;;;;;;;3.92;2.05;;;;;;;;;;5075967;28;20203;-64
2023/01/15 05:50:38;;;;;;;11.25;3.50;;;;;;;;;;5076110;28;20314;-64
2023/01/15 05:53:05;;;;;;;7.63;2.60;;;;;;;;;;5076304;28;20201;-64
2023/01/15 05:55:33;;;;;;;6.63;2.45;;;;;;;;;;5076084;28;20200;-64
2023/01/15 05:58:00;;;;;;;5.45;2.10;;;;;;;;;;5076136;28;20229;-64
2023/01/15 06:00:27;;;;;;;4.47;2.20;;;;;;;;;;5075757;28;20208;-65
2023/01/15 06:02:54;;;;;;;3.80;2.40;;;;;;;;;;5075731;28;20212;-64
2023/01/15 06:05:23;;;;;;;9.43;2.53;;;;;;;;;;5075992;28;20194;-64
2023/01/15 06:07:51;;;;;;;2.45;2.00;;;;;;;;;;5075915;28;20618;-64
2023/01/15 06:10:19;;;;;;;2.40;2.00;;;;;;;;;;5075820;28;20709;-64
2023/01/15 06:12:46;;;;;;;4.03;1.85;;;;;;;;;;5075786;28;20233;-64
2023/01/15 06:15:13;;;;;;;7.82;2.10;;;;;;;;;;5074924;28;20194;-64
2023/01/15 06:17:40;;;;;;;5.03;2.40;;;;;;;;;;5075587;28;20197;-64
2023/01/15 06:20:08;;;;;;;14.90;2.55;;;;;;;;;;5075747;28;20552;-64
2023/01/15 06:22:37;;;;;;;9.73;2.80;;;;;;;;;;5075819;28;20200;-64
2023/01/15 06:25:05;;;;;;;5.70;2.60;;;;;;;;;;5075783;28;20196;-64
2023/01/15 06:27:32;;;;;;;3.97;2.10;;;;;;;;;;5075460;28;20202;-64
2023/01/15 06:30:00;;;;;;;5.60;1.77;;;;;;;;;;5075529;28;20207;-64
2023/01/15 06:32:27;;;;;;;5.90;2.30;;;;;;;;;;5075308;28;20218;-64
2023/01/15 06:34:54;;;;;;;4.32;2.38;;;;;;;;;;5075902;28;20193;-64
2023/01/15 06:37:21;;;;;;;10.73;2.30;;;;;;;;;;5075522;28;20204;-64
2023/01/15 06:39:50;;;;;;;7.35;2.35;;;;;;;;;;5075372;28;20200;-64
2023/01/15 06:47:47;;;;;;;5.30;2.85;;;;;;;;;;5074960;28;20181;-64
2023/01/15 06:50:15;;;;;;;6.25;2.63;;;;;;;;;;5075077;28;20555;-65
2023/01/15 06:52:42;;;;;;;4.43;2.25;;;;;;;;;;5074909;28;20620;-64
2023/01/15 06:55:11;;;;;;;5.40;2.45;;;;;;;;;;5074837;28;20216;-64
2023/01/15 06:57:39;;;;;;;6.00;2.17;;;;;;;;;;5074929;28;20202;-65
2023/01/15 07:00:07;;;;;;;4.45;2.30;;;;;;;;;;5075054;28;20202;-65
2023/01/15 07:02:34;;;;;;;7.30;2.17;;;;;;;;;;5075054;28;20240;-64
2023/01/15 07:05:01;;;;;;;9.60;3.60;;;;;;;;;;5074862;28;20193;-64
2023/01/15 07:07:29;;;;;;;15.93;2.78;;;;;;;;;;5074652;28;20194;-64
2023/01/15 07:09:56;;;;;;;7.10;1.92;;;;;;;;;;5074757;28;20201;-64
2023/01/15 07:12:24;;;;;;;5.80;2.63;;;;;;;;;;5074552;28;20242;-64
2023/01/15 07:14:52;;;;;;;3.85;2.72;;;;;;;;;;5074729;28;20286;-64
2023/01/15 07:17:19;;;;;;;9.15;3.08;;;;;;;;;;5074129;28;20194;-64
2023/01/15 07:19:47;;;;;;;7.05;2.90;;;;;;;;;;5074745;28;20197;-64
2023/01/15 07:22:15;;;;;;;5.13;2.85;;;;;;;;;;5074465;28;20205;-64
2023/01/15 07:24:42;;;;;;;6.78;2.25;;;;;;;;;;5074374;28;20295;-64
2023/01/15 07:27:09;;;;;;;6.60;2.33;;;;;;;;;;5074310;28;20197;-64
2023/01/15 07:29:38;;;;;;;5.18;2.45;;;;;;;;;;5074030;28;20292;-64
2023/01/15 07:32:05;;;;;;;3.17;2.35;;;;;;;;;;5074680;28;20217;-64
2023/01/15 07:34:33;;;;;;;8.05;2.70;;;;;;;;;;5073947;28;20203;-64
2023/01/15 07:37:00;;;;;;;6.40;2.30;;;;;;;;;;5073805;28;20197;-64
2023/01/15 07:39:30;;;;;;;9.00;2.58;;;;;;;;;;5074971;28;20199;-64
2023/01/15 07:50:14;;;;;;;5.43;2.00;;;;;;;;;;5073741;28;20228;-64
2023/01/15 07:52:42;;;;;;;5.10;2.05;;;;;;;;;;5073746;28;20221;-64
2023/01/15 07:55:11;;;;;;;11.18;2.10;;;;;;;;;;5074199;28;20295;-64
2023/01/15 07:57:39;;;;;;;10.93;2.30;;;;;;;;;;5073922;28;20281;-65
2023/01/15 08:00:09;;;;;;;8.85;1.80;;;;;;;;;;5073829;28;20200;-64
2023/01/15 08:02:36;;;;;;;5.78;2.42;;;;;;;;;;5074164;28;20219;-64
2023/01/15 08:05:03;;;;;;;5.97;2.65;;;;;;;;;;5073762;28;20553;-64
2023/01/15 08:07:30;;;;;;;6.22;2.15;;;;;;;;;;5073466;28;20197;-64
2023/01/15 08:09:57;;;;;;;13.00;2.30;;;;;;;;;;5073980;28;20200;-64
2023/01/15 08:15:15;;;;;;;3.22;2.00;;;;;;;;;;5073585;28;20177;-64
2023/01/15 08:17:43;;;;;;;8.75;2.33;;;;;;;;;;5073191;28;20183;-64
2023/01/15 08:20:11;;;;;;;6.47;2.70;;;;;;;;;;5073169;28;20526;-64
2023/01/15 08:22:39;;;;;;;6.45;3.83;;;;;;;;;;5073390;28;20213;-65
2023/01/15 08:25:07;;;;;;;3.72;2.63;;;;;;;;;;5073818;28;20205;-65
2023/01/15 08:27:34;;;;;;;3.28;2.60;;;;;;;;;;5073590;28;20561;-66
2023/01/15 08:30:01;;;;;;;9.60;2.45;;;;;;;;;;5073635;28;20198;-64
2023/01/15 08:32:30;;;;;;;2.55;2.22;;;;;;;;;;5073380;28;20216;-64
2023/01/15 08:34:57;;;;;;;11.43;2.30;;;;;;;;;;5073581;28;20201;-64
2023/01/15 08:37:24;;;;;;;7.32;2.10;;;;;;;;;;5072803;28;20208;-64
2023/01/15 08:39:52;;;;;;;5.30;2.30;;;;;;;;;;5073244;28;20190;-64
2023/01/15 08:42:19;;;;;;;4.70;2.30;;;;;;;;;;5073787;28;20209;-64
2023/01/15 08:44:53;;;;;;;3.35;2.13;;;;;;;;;;5073159;28;20197;-64
2023/01/15 08:47:20;;;;;;;3.22;1.77;;;;;;;;;;5073695;28;20201;-64
2023/01/15 08:49:48;;;;;;;13.65;2.70;;;;;;;;;;5072658;28;20292;-64
2023/01/15 08:52:16;;;;;;;4.38;2.40;;;;;;;;;;5072784;28;20652;-64
2023/01/15 08:54:43;;;;;;;6.60;2.50;;;;;;;;;;5072842;28;20202;-65
2023/01/15 08:57:12;;;;;;;4.57;1.95;;;;;;;;;;5073281;28;20672;-66
2023/01/15 08:59:41;;;;;;;3.30;1.95;;;;;;;;;;5073561;28;20201;-64
2023/01/15 09:02:10;;;;;;;4.03;1.85;;;;;;;;;;5073102;28;20229;-64
2023/01/15 09:04:37;;;;;;;5.47;2.50;;;;;;;;;;5073197;28;20193;-64
2023/01/15 09:07:06;;;;;;;7.78;2.30;;;;;;;;;;5072766;28;20202;-64
2023/01/15 09:09:34;;;;;;;4.82;2.20;;;;;;;;;;5072887;28;20203;-65
2023/01/15 09:12:01;;;;;;;4.70;1.88;;;;;;;;;;5072538;28;20320;-65
2023/01/15 09:14:28;;;;;;;8.68;2.65;;;;;;;;;;5072994;28;20551;-66
2023/01/15 09:16:56;;;;;;;11.30;3.33;;;;;;;;;;5072717;28;20285;-66
2023/01/15 09:19:23;;;;;;;3.38;1.65;;;;;;;;;;5072959;28;20558;-64
2023/01/15 09:21:51;;;;;;;3.72;1.75;;;;;;;;;;5072510;28;20211;-64
2023/01/15 09:24:19;;;;;;;6.03;2.30;;;;;;;;;;5073252;28;20554;-64
2023/01/15 09:26:46;;;;;;;7.97;2.33;;;;;;;;;;5073112;28;20611;-64
2023/01/15 09:29:14;;;;;;;5.57;1.70;;;;;;;;;;5072390;28;20197;-65
2023/01/15 09:31:41;;;;;;;4.53;2.70;;;;;;;;;;5072893;28;20230;-64
2023/01/15 09:34:09;;;;;;;7.90;2.75;;;;;;;;;;5072400;28;20206;-65
2023/01/15 09:36:36;;;;;;;2.30;1.98;;;;;;;;;;5072420;28;20291;-63
2023/01/15 09:39:04;;;;;;;6.57;2.38;;;;;;;;;;5073043;28;20197;-64
2023/01/15 09:44:29;;;;;;;4.05;1.90;;;;;;;;;;5072427;28;20192;-64
2023/01/15 09:47:02;;;;;;;5.10;1.90;;;;;;;;;;5072878;28;20193;-64
2023/01/15 09:49:34;;;;;;;2.92;2.28;;;;;;;;;;5074040;28;20209;-63
2023/01/15 09:52:08;;;;;;;6.80;2.65;;;;;;;;;;5076723;28;20214;-63
2023/01/15 09:54:42;;;;;;;3.05;2.05;;;;;;;;;;5076249;28;20198;-63
2023/01/15 09:57:12;;;;;;;9.40;2.60;;;;;;;;;;5076555;28;20634;-64
2023/01/15 09:59:41;;;;;;;6.50;2.20;;;;;;;;;;5076644;28;20239;-64
2023/01/15 10:02:17;;;;;;;4.63;1.75;;;;;;;;;;5076031;28;20198;-64
2023/01/15 10:04:47;;;;;;;7.70;2.33;;;;;;;;;;5076202;28;20182;-65
2023/01/15 10:07:19;;;;;;;3.72;2.63;;;;;;;;;;5075742;28;20182;-65
2023/01/15 10:09:49;;;;;;;6.00;1.80;;;;;;;;;;5076138;28;20183;-65
2023/01/15 10:12:37;;;;;;;4.90;2.00;;;;;;;;;;5075797;28;20233;-64
2023/01/15 10:15:11;;;;;;;4.30;2.38;;;;;;;;;;5075733;28;20185;-65
2023/01/15 10:17:41;;;;;;;5.45;2.17;;;;;;;;;;5075755;28;20186;-65
2023/01/15 10:20:13;;;;;;;6.40;1.90;;;;;;;;;;5075502;28;20197;-65
2023/01/15 10:22:48;;;;;;;5.00;2.03;;;;;;;;;;5076297;28;20193;-65
2023/01/15 10:25:17;;;;;;;9.65;3.17;;;;;;;;;;5075467;28;20186;-65
2023/01/15 10:27:48;;;;;;;4.60;1.95;;;;;;;;;;5075301;28;20204;-65
2023/01/15 10:30:17;;;;;;;2.60;1.80;;;;;;;;;;5076088;28;20182;-65
2023/01/15 10:32:48;;;;;;;7.32;1.85;;;;;;;;;;5075089;28;20221;-65
2023/01/15 10:35:23;;;;;;;8.35;1.88;;;;;;;;;;5075826;28;20194;-65
2023/01/15 10:37:52;;;;;;;3.58;1.90;;;;;;;;;;5075638;28;20266;-65
2023/01/15 10:40:29;;;;;;;6.60;2.20;;;;;;;;;;5075634;28;20232;-65
2023/01/15 10:43:00;;;;;;;3.65;1.40;;;;;;;;;;5074986;28;20190;-65
2023/01/15 10:45:29;;;;;;;5.53;1.95;;;;;;;;;;5075686;28;20190;-65
2023/01/15 10:47:58;;;;;;;9.02;4.05;;;;;;;;;;5075087;28;20193;-65
2023/01/15 10:50:26;;;;;;;2.45;2.00;;;;;;;;;;5074773;28;20202;-65
2023/01/15 10:53:02;;;;;;;6.28;1.75;;;;;;;;;;5074988;28;20235;-65
2023/01/15 10:55:32;;;;;;;3.50;1.98;;;;;;;;;;5075465;28;20178;-65
2023/01/15 10:58:03;;;;;;;2.55;1.77;;;;;;;;;;5075011;28;20312;-65
2023/01/15 11:00:30;;;;;;;6.82;2.42;;;;;;;;;;5074113;28;20189;-65
2023/01/15 11:03:01;;;;;;;3.65;1.85;;;;;;;;;;5074843;28;20637;-65
2023/01/15 11:05:29;;;;;;;4.93;1.38;;;;;;;;;;5075032;28;20244;-65
2023/01/15 11:07:57;;;;;;;5.65;2.38;;;;;;;;;;5074802;28;20220;-65
2023/01/15 11:10:24;;;;;;;10.70;2.90;;;;;;;;;;5074684;28;20646;-65
2023/01/15 11:21:11;;;;;;;6.25;1.58;;;;;;;;;;5074179;28;20292;-64
2023/01/15 11:23:39;;;;;;;7.18;2.25;;;;;;;;;;5074480;28;20197;-64
2023/01/15 11:26:06;;;;;;;6.65;1.80;;;;;;;;;;5074108;28;20285;-65
2023/01/15 11:28:38;;;;;;;6.63;2.13;;;;;;;;;;5074303;28;20241;-65
2023/01/15 11:31:07;;;;;;;7.57;1.70;;;;;;;;;;5074005;28;20229;-65
2023/01/15 11:33:35;;;;;;;1.95;1.70;;;;;;;;;;5074404;28;20672;-65
2023/01/15 11:36:04;;;;;;;5.43;2.00;;;;;;;;;;5074137;28;20198;-65
2023/01/15 11:38:32;;;;;;;2.17;1.60;;;;;;;;;;5074193;28;20570;-65
2023/01/15 11:41:00;;;;;;;3.90;2.05;;;;;;;;;;5074359;28;20635;-65
2023/01/15 11:52:07;;;;;;;10.35;2.17;;;;;;;;;;5073908;28;20662;-65
2023/01/15 11:54:38;;;;;;;8.20;2.55;;;;;;;;;;5073860;28;20201;-65
2023/01/15 11:57:06;;;;;;;5.90;1.83;;;;;;;;;;5074245;28;20182;-65
2023/01/15 11:59:33;;;;;;;1.55;1.45;;;;;;;;;;5073827;28;20194;-65
2023/01/15 12:02:03;;;;;;;5.63;1.60;;;;;;;;;;5073983;28;20194;-66
2023/01/15 12:04:35;;;;;;;6.13;1.70;;;;;;;;;;5073473;28;20194;-65
2023/01/15 12:07:03;;;;;;;4.20;1.55;;;;;;;;;;5073606;28;20628;-66
2023/01/15 12:09:37;;;;;;;5.53;2.35;;;;;;;;;;5073501;28;20193;-65
2023/01/15 12:12:07;;;;;;;7.10;1.98;;;;;;;;;;5072294;28;20228;-65
2023/01/15 12:14:55;;;;;;;7.10;2.33;;;;;;;;;;5073885;28;20240;-65
2023/01/15 12:17:30;;;;;;;6.38;1.50;;;;;;;;;;5069012;28;20280;-65
2023/01/15 12:20:03;;;;;;;5.97;2.08;;;;;;;;;;5073664;28;20256;-66
2023/01/15 12:22:37;;;;;;;7.63;2.65;;;;;;;;;;5073885;28;20277;-65
2023/01/15 12:25:11;;;;;;;7.28;2.20;;;;;;;;;;5073770;28;20182;-65
2023/01/15 12:27:51;;;;;;;4.47;1.80;;;;;;;;;;5073164;28;20192;-65
2023/01/15 12:30:22;;;;;;;6.25;2.10;;;;;;;;;;5073737;28;20182;-65
2023/01/15 12:32:52;;;;;;;8.05;1.80;;;;;;;;;;5073508;28;20264;-65
2023/01/15 12:35:25;;;;;;;7.40;2.90;;;;;;;;;;5073267;28;20182;-65
2023/01/15 12:37:54;;;;;;;5.35;2.47;;;;;;;;;;5073646;28;20190;-65
2023/01/15 12:40:25;;;;;;;5.47;1.58;;;;;;;;;;5073602;28;20220;-66
2023/01/15 12:45:40;;;;;;;8.65;2.13;;;;;;;;;;5073251;28;20720;-65
2023/01/15 12:48:12;;;;;;;7.15;2.30;;;;;;;;;;5073123;28;20202;-65
2023/01/15 12:50:43;;;;;;;2.90;1.67;;;;;;;;;;5073488;28;20201;-65
2023/01/15 12:53:15;;;;;;;3.53;1.83;;;;;;;;;;5073200;28;20245;-65
2023/01/15 12:55:47;;;;;;;2.63;1.70;;;;;;;;;;5072874;28;20194;-65
2023/01/15 12:58:20;;;;;;;5.10;1.50;;;;;;;;;;5073523;28;20323;-65
2023/01/15 13:00:48;;;;;;;6.25;2.58;;;;;;;;;;5073529;28;20186;-65
2023/01/15 13:03:19;;;;;;;4.55;2.08;;;;;;;;;;5072947;28;20193;-65
2023/01/15 13:05:50;;;;;;;8.70;1.80;;;;;;;;;;5072842;28;20182;-65
2023/01/15 13:08:21;;;;;;;1.85;1.63;;;;;;;;;;5073128;28;20186;-65
2023/01/15 13:10:50;;;;;;;5.78;2.00;;;;;;;;;;5073555;28;20198;-65
2023/01/15 13:13:18;;;;;;;3.15;1.75;;;;;;;;;;5072510;28;20317;-65
2023/01/15 13:15:50;;;;;;;3.25;1.75;;;;;;;;;;5072745;28;20205;-65
2023/01/15 13:18:23;;;;;;;2.47;1.88;;;;;;;;;;5073338;28;20214;-65
2023/01/15 13:20:54;;;;;;;5.18;1.80;;;;;;;;;;5073216;28;20186;-65
2023/01/15 13:23:28;;;;;;;6.32;1.80;;;;;;;;;;5074612;28;20190;-65
2023/01/15 13:25:57;;;;;;;4.50;1.50;;;;;;;;;;5077574;28;20192;-65
2023/01/15 13:28:33;;;;;;;3.88;1.73;;;;;;;;;;5076469;28;20306;-65
2023/01/15 13:31:05;;;;;;;4.70;1.50;;;;;;;;;;5076295;28;20273;-65
2023/01/15 13:33:36;;;;;;;4.60;2.05;;;;;;;;;;5075957;28;20233;-65
2023/01/15 13:36:10;;;;;;;2.63;1.90;;;;;;;;;;5076243;28;20205;-65
2023/01/15 13:38:39;;;;;;;2.20;1.92;;;;;;;;;;5076739;28;20182;-65
2023/01/15 13:41:07;;;;;;;2.00;1.90;;;;;;;;;;5076233;28;20292;-65
2023/01/15 13:43:37;;;;;;;3.55;1.90;;;;;;;;;;5075873;28;20198;-65
2023/01/15 13:46:10;;;;;;;2.17;1.60;;;;;;;;;;5076390;28;20221;-65
2023/01/15 13:48:41;;;;;;;1.42;1.25;;;;;;;;;;5075883;28;20275;-65
2023/01/15 13:51:23;;;;;;;8.63;1.95;;;;;;;;;;5076468;28;20616;-65
2023/01/15 13:53:51;;;;;;;3.38;1.60;;;;;;;;;;5076165;28;20493;-65
2023/01/15 13:56:26;;;;;;;5.22;1.75;;;;;;;;;;5075968;28;20670;-65
2023/01/15 13:58:54;;;;;;;11.82;2.55;;;;;;;;;;5076469;28;20186;-65
2023/01/15 14:01:23;;;;;;;2.72;1.67;;;;;;;;;;5075719;28;20194;-65
2023/01/15 14:03:56;;;;;;;4.15;2.22;;;;;;;;;;5075992;28;20198;-66
2023/01/15 14:06:36;;;;;;;3.45;1.98;;;;;;;;;;5076071;28;20199;-65
2023/01/15 14:09:04;;;;;;;6.63;2.10;;;;;;;;;;5076364;28;20200;-65
2023/01/15 14:11:36;;;;;;;2.83;2.58;;;;;;;;;;5076085;28;20544;-65
2023/01/15 14:14:13;;;;;;;3.08;2.17;;;;;;;;;;5075645;28;20217;-65
2023/01/15 14:16:45;;;;;;;8.07;2.20;;;;;;;;;;5076111;28;20197;-65
2023/01/15 14:19:20;;;;;;;4.15;1.88;;;;;;;;;;5075837;28;20684;-65
2023/01/15 14:21:53;;;;;;;7.25;3.00;;;;;;;;;;5075630;28;20189;-65
2023/01/15 14:24:41;;;;;;;6.30;3.22;;;;;;;;;;5075327;28;20194;-65
2023/01/15 14:27:14;;;;;;;3.67;1.95;;;;;;;;;;5075921;28;20191;-65
2023/01/15 14:29:49;;;;;;;4.20;2.72;;;;;;;;;;5075181;28;20186;-65
2023/01/15 14:32:21;;;;;;;2.85;1.80;;;;;;;;;;5075381;28;20570;-65
2023/01/15 14:34:55;;;;;;;2.75;2.55;;;;;;;;;;5074251;28;20566;-65
2023/01/15 14:37:26;;;;;;;8.00;2.03;;;;;;;;;;5075603;28;20277;-65
2023/01/15 14:39:57;;;;;;;4.35;2.00;;;;;;;;;;5074992;28;20189;-65
2023/01/15 14:45:19;;;;;;;3.55;2.35;;;;;;;;;;5075315;28;20232;-65
2023/01/15 14:47:47;;;;;;;5.93;3.17;;;;;;;;;;5074922;28;20182;-66
2023/01/15 14:50:26;;;;;;;5.35;2.95;;;;;;;;;;5074856;28;20198;-66
2023/01/15 14:52:56;;;;;;;4.15;2.97;;;;;;;;;;5075231;28;20230;-65
2023/01/15 14:55:24;;;;;;;3.60;1.70;;;;;;;;;;5074973;28;20186;-65
2023/01/15 14:57:56;;;;;;;2.65;2.08;;;;;;;;;;5074821;28;20280;-65
2023/01/15 15:00:25;;;;;;;4.40;2.40;;;;;;;;;;5074987;28;20265;-65
2023/01/15 15:02:52;;;;;;;7.95;2.67;;;;;;;;;;5074783;28;20202;-64
2023/01/15 15:05:21;;;;;;;5.40;1.80;;;;;;;;;;5074522;28;20197;-65
2023/01/15 15:07:51;;;;;;;5.88;1.90;;;;;;;;;;5074771;28;20198;-65
2023/01/15 15:10:22;;;;;;;2.95;2.22;;;;;;;;;;5074433;28;20214;-64
2023/01/15 15:12:52;;;;;;;3.08;1.90;;;;;;;;;;5074469;28;20320;-64
2023/01/15 15:15:22;;;;;;;5.68;2.20;;;;;;;;;;5074649;28;20594;-65
2023/01/15 15:17:56;;;;;;;4.45;2.15;;;;;;;;;;5074765;28;20502;-65
2023/01/15 15:20:28;;;;;;;7.43;2.53;;;;;;;;;;5074512;28;20191;-64
2023/01/15 15:22:57;;;;;;;2.58;2.00;;;;;;;;;;5075036;28;20204;-64
2023/01/15 15:25:28;;;;;;;6.10;1.75;;;;;;;;;;5074024;28;20209;-64
2023/01/15 15:28:05;;;;;;;4.80;1.52;;;;;;;;;;5074615;28;20284;-64
2023/01/15 15:30:34;;;;;;;1.98;1.30;;;;;;;;;;5073827;28;20229;-65
2023/01/15 15:33:01;;;;;;;1.98;1.70;;;;;;;;;;5073825;28;20200;-65
2023/01/15 15:35:29;;;;;;;2.55;1.88;;;;;;;;;;5074258;28;20666;-64
2023/01/15 15:37:58;;;;;;;6.93;2.10;;;;;;;;;;5074180;28;20233;-65
2023/01/15 15:40:30;;;;;;;4.50;2.58;;;;;;;;;;5073838;28;20205;-65
2023/01/15 15:48:44;;;;;;;2.92;2.20;;;;;;;;;;5073926;28;20177;-66
2023/01/15 15:51:25;;;;;;;6.47;2.60;;;;;;;;;;5074177;28;20207;-67